Airfield :
LOGIN :

Register | Disclaimer

   EN    FR    IT 

 










Legend :    VFR   Marginal VFR   IFR   Intensive IFR   Very Intensive IFR
Visi :
Ceiling :
>= 8 km
>= 3000ft
5 to 8 km
1000 to 3000 ft
1500m to 5 km
500 to 1000 ft
800 to 1500m
200 to 500 ft
< 800m
< 200 ft
Symbols :   Thunderstorms  Fog  Heavy snow  Heavy precipitations  Wind > 20 kt
SIGMETs :     Misc.  Thunderstorms  Icing  Turbulence  Mountain Waves  Volcanic Ashes







- Airport Elevation : 1411 ft
- IATA code : ZHI


LSZG - Grenchen

CURRENT METAR :
  • 210920Z VRB02KT 9999 -RA FEW012 BKN030 OVC080 18/16 Q1015 RERA NOSIG

EXPIRED METARs :
  • 210850Z 28002KT 9999 RA FEW010 BKN020 BKN070 18/16 Q1015 NOSIG
  • 210820Z 25001KT 9999 -RA FEW010 BKN016 BKN060 18/16 Q1015 NOSIG
  • 210750Z 26001KT 9999 RA FEW012 SCT025 OVC080 18/16 Q1015 NOSIG
  • 210720Z 31002KT 9999 FEW012 SCT020 OVC090 18/16 Q1014 NOSIG
  • 210650Z VRB01KT 8000 FEW012 OVC100 17/16 Q1014 NOSIG

TAF TAF LSZG
Valid from the 21 at 09:00 until the 21 at 18:00 UTC


210825Z 2109/2118 24005KT 9999 FEW015 SCT050 BKN090
TEMPO 2109/2118 SHRA SCT040TCU
PROB40
TEMPO 2112/2118 4000 TSRA SCT040CB
ATIS : +41 32 396 96 33
No reported NOTAMs for that airfield.



MET'MAP, your aeronautical weather chart ! - Copyright ORBIFLY December 2007 - Disclaimer

ORBIFLY MET'MAP TEAM :

Programming & Development : Alexandra Zaïnal
Concept & Development : Baudouin d'Aumeries
Co-Development & Prog : Marc-Olivier Méhu
Technical & hardware support : Manuel Goepfert

Contact : metmap@orbifly.com




SOURCES & CREDITS :

   NOAA